Time;durP1;ratioP1;P1;durP2;ratioP2;P2;SDS_P1;SDS_P2;PMS_P1;PMS_P2;Temp;Humidity;BMP_temperature;BMP_pressure;BME280_temperature;BME280_humidity;BME280_pressure;Samples;Min_cycle;Max_cycle;Signal;HPM_P1;HPM_P2
2021/10/31 00:00:48;;;;;;;5.32;3.38;;;;;;;12.84;100.00;98145.16;5076563;28;20104;-89
2021/10/31 00:03:16;;;;;;;5.20;3.58;;;;;;;12.79;100.00;98147.09;5086411;28;20039;-89
2021/10/31 00:05:42;;;;;;;5.60;3.22;;;;;;;12.78;100.00;98153.28;5081249;28;20028;-89
2021/10/31 00:08:07;;;;;;;6.00;3.38;;;;;;;12.70;100.00;98150.09;5079813;28;20031;-89
2021/10/31 00:10:33;;;;;;;5.82;3.72;;;;;;;12.62;100.00;98151.25;5106166;28;20307;-89
2021/10/31 00:12:59;;;;;;;6.05;3.47;;;;;;;12.51;100.00;98149.00;5089253;28;20024;-89
2021/10/31 00:15:24;;;;;;;6.95;3.45;;;;;;;12.39;100.00;98152.06;5076311;28;20013;-89
2021/10/31 00:17:50;;;;;;;5.65;3.80;;;;;;;12.37;100.00;98148.59;5076317;28;20023;-89
2021/10/31 00:20:15;;;;;;;5.97;3.70;;;;;;;12.29;100.00;98161.19;5102937;28;20091;-89
2021/10/31 00:22:44;;;;;;;10.40;4.22;;;;;;;12.16;100.00;98178.34;5077362;28;20100;-89
2021/10/31 00:25:09;;;;;;;7.22;4.25;;;;;;;12.12;100.00;98192.53;5088684;28;20028;-89
2021/10/31 00:27:35;;;;;;;6.32;4.50;;;;;;;12.05;100.00;98190.13;5079195;28;20305;-89
2021/10/31 00:30:00;;;;;;;8.20;4.25;;;;;;;12.01;100.00;98188.53;5086815;28;20021;-89
2021/10/31 00:32:26;;;;;;;6.95;4.05;;;;;;;11.97;100.00;98205.38;5070229;28;20023;-89
2021/10/31 00:34:51;;;;;;;14.63;4.60;;;;;;;11.92;100.00;98204.63;5089066;28;20019;-89
2021/10/31 00:37:17;;;;;;;6.15;4.07;;;;;;;11.85;100.00;98203.97;5084634;28;20020;-89
2021/10/31 00:39:43;;;;;;;10.60;4.40;;;;;;;11.92;100.00;98209.91;5088984;28;20012;-89
2021/10/31 00:42:08;;;;;;;11.20;4.60;;;;;;;11.85;100.00;98214.53;5088796;28;20073;-89
2021/10/31 00:44:34;;;;;;;8.25;4.50;;;;;;;11.81;100.00;98220.81;5086785;28;20012;-89
2021/10/31 00:46:59;;;;;;;9.63;4.63;;;;;;;11.76;100.00;98225.34;5081622;28;20020;-89
2021/10/31 00:49:25;;;;;;;9.90;4.45;;;;;;;11.71;100.00;98221.13;5084291;28;20220;-89
2021/10/31 00:51:51;;;;;;;8.27;4.90;;;;;;;11.72;100.00;98218.44;5098286;28;20011;-89
2021/10/31 00:54:16;;;;;;;6.28;4.65;;;;;;;11.66;100.00;98226.53;5079677;28;20027;-89
2021/10/31 00:56:42;;;;;;;6.72;4.22;;;;;;;11.63;100.00;98224.00;5076110;28;20380;-89
2021/10/31 00:59:08;;;;;;;8.85;4.68;;;;;;;11.67;100.00;98224.78;5071054;28;20022;-89
2021/10/31 01:01:34;;;;;;;8.52;5.10;;;;;;;11.62;100.00;98224.91;5082715;28;20046;-89
2021/10/31 01:04:00;;;;;;;7.75;4.93;;;;;;;11.53;100.00;98230.41;5080001;28;20061;-89
2021/10/31 01:06:28;;;;;;;8.23;4.82;;;;;;;11.54;100.00;98226.00;5095933;28;20107;-89
2021/10/31 01:09:22;;;;;;;10.90;4.32;;;;;;;11.53;100.00;98226.91;5075884;28;20081;-89
2021/10/31 01:12:22;;;;;;;8.60;5.13;;;;;;;11.63;100.00;98245.09;5064299;28;20012;-89
2021/10/31 01:15:25;;;;;;;9.43;5.55;;;;;;;11.58;100.00;98236.41;5069213;28;20095;-89
2021/10/31 01:18:13;;;;;;;8.27;4.75;;;;;;;11.50;100.00;98245.44;5044911;28;20024;-89
2021/10/31 01:21:15;;;;;;;7.88;4.68;;;;;;;11.35;100.00;98233.59;5095833;28;20032;-89
2021/10/31 01:24:18;;;;;;;7.90;4.82;;;;;;;11.27;100.00;98227.69;5083754;28;20087;-89
2021/10/31 01:26:56;;;;;;;8.65;5.43;;;;;;;11.23;100.00;98249.72;5069262;28;20347;-89
2021/10/31 01:30:00;;;;;;;9.85;5.57;;;;;;;11.12;100.00;98251.81;5068275;28;20028;-89
2021/10/31 01:32:51;;;;;;;9.23;5.25;;;;;;;11.10;100.00;98264.16;5068200;28;20073;-89
2021/10/31 01:35:32;;;;;;;11.23;6.20;;;;;;;11.11;100.00;98255.34;5068056;28;20024;-89
2021/10/31 01:38:19;;;;;;;12.88;7.72;;;;;;;11.10;100.00;98264.16;5067998;28;20048;-89
2021/10/31 01:40:56;;;;;;;15.60;6.50;;;;;;;11.01;100.00;98277.56;5067955;28;20055;-89
2021/10/31 01:44:02;;;;;;;9.85;5.72;;;;;;;10.93;100.00;98271.66;5068009;28;20026;-89
2021/10/31 01:46:51;;;;;;;9.65;5.97;;;;;;;10.85;100.00;98278.88;5098865;28;20020;-89
2021/10/31 01:49:24;;;;;;;11.25;5.45;;;;;;;10.83;100.00;98265.75;5075151;28;20099;-89
2021/10/31 01:51:56;;;;;;;12.85;6.88;;;;;;;10.83;100.00;98271.00;5078197;28;20043;-89
2021/10/31 01:54:59;;;;;;;11.55;6.47;;;;;;;10.76;100.00;98263.34;5083480;28;20433;-89
2021/10/31 01:57:27;;;;;;;11.93;6.78;;;;;;;10.72;100.00;98269.56;5077267;28;20032;-89
2021/10/31 02:00:03;;;;;;;12.57;6.90;;;;;;;10.83;100.00;98280.69;5079630;28;20091;-89
2021/10/31 02:02:33;;;;;;;11.02;6.80;;;;;;;10.84;100.00;98277.16;5098410;28;20319;-89
2021/10/31 02:05:00;;;;;;;10.40;7.00;;;;;;;10.91;100.00;98273.44;5093364;28;20347;-89
2021/10/31 02:07:27;;;;;;;11.52;6.53;;;;;;;10.95;100.00;98270.69;5075037;28;20031;-89
2021/10/31 02:09:53;;;;;;;12.35;7.38;;;;;;;11.01;100.00;98264.38;5081780;28;20012;-89
2021/10/31 02:12:21;;;;;;;13.30;7.70;;;;;;;11.09;100.00;98267.69;5085723;28;20339;-89
2021/10/31 02:14:47;;;;;;;15.02;8.82;;;;;;;11.16;100.00;98274.53;5087183;28;20047;-89
2021/10/31 02:17:16;;;;;;;18.38;9.27;;;;;;;11.24;100.00;98272.56;5093588;28;20203;-89
2021/10/31 02:19:44;;;;;;;18.40;8.85;;;;;;;11.26;100.00;98281.25;5081251;28;20230;-89
2021/10/31 02:22:18;;;;;;;14.13;8.38;;;;;;;11.32;100.00;98275.81;5068243;28;20051;-89
2021/10/31 02:24:45;;;;;;;18.25;9.65;;;;;;;11.36;100.00;98314.34;5078922;28;20016;-89
2021/10/31 02:27:12;;;;;;;16.55;9.32;;;;;;;11.38;100.00;98154.44;5075114;28;20024;-88
2021/10/31 02:29:52;;;;;;;15.48;9.70;;;;;;;11.45;100.00;98147.22;5085349;28;20058;-89
2021/10/31 02:32:21;;;;;;;14.35;8.25;;;;;;;11.41;100.00;98172.81;5086987;28;20015;-88
2021/10/31 02:34:47;;;;;;;12.80;7.93;;;;;;;11.33;100.00;98177.41;5086890;28;20016;-89
2021/10/31 02:37:12;;;;;;;16.85;8.57;;;;;;;11.24;100.00;98166.31;5084816;28;20019;-89
2021/10/31 02:39:38;;;;;;;15.68;8.50;;;;;;;11.20;100.00;98160.25;5069136;28;20036;-89
2021/10/31 02:42:04;;;;;;;14.45;8.63;;;;;;;11.19;100.00;98153.25;5069068;28;20020;-89
2021/10/31 02:44:30;;;;;;;10.40;6.55;;;;;;;11.20;100.00;98152.34;5097374;28;20104;-88
2021/10/31 02:46:56;;;;;;;13.57;7.72;;;;;;;11.16;100.00;98145.44;5074641;28;20137;-88
2021/10/31 02:49:23;;;;;;;18.23;7.13;;;;;;;11.12;100.00;98146.47;5082498;28;20051;-88
2021/10/31 02:51:57;;;;;;;10.98;7.85;;;;;;;11.15;100.00;98146.38;5068876;28;20323;-88
2021/10/31 02:54:43;;;;;;;15.60;8.85;;;;;;;11.10;100.00;98140.38;5069885;28;20043;-88
2021/10/31 02:57:23;;;;;;;16.67;9.80;;;;;;;10.96;100.00;98134.66;5069167;28;20016;-88
2021/10/31 02:59:56;;;;;;;23.15;10.13;;;;;;;10.89;100.00;98138.38;5101449;28;20020;-88
2021/10/31 03:02:26;;;;;;;17.23;9.48;;;;;;;10.90;100.00;98135.69;5098673;28;20095;-88
2021/10/31 03:04:52;;;;;;;19.98;9.70;;;;;;;10.94;100.00;98141.72;5086187;28;20096;-88
2021/10/31 03:07:18;;;;;;;21.00;9.02;;;;;;;11.02;100.00;98147.63;5077481;28;20024;-88
2021/10/31 03:09:47;;;;;;;15.40;8.52;;;;;;;11.04;100.00;98142.31;5086509;28;20043;-88
2021/10/31 03:12:14;;;;;;;18.35;9.43;;;;;;;10.98;100.00;98138.06;5072441;28;20322;-88
2021/10/31 03:14:39;;;;;;;14.05;8.13;;;;;;;11.03;100.00;98133.56;5083008;28;20308;-88
2021/10/31 03:17:06;;;;;;;16.15;9.40;;;;;;;10.92;100.00;98133.84;5069699;28;20012;-88
2021/10/31 03:19:33;;;;;;;21.10;10.15;;;;;;;10.77;100.00;98130.81;5080833;28;20019;-88
2021/10/31 03:21:59;;;;;;;18.38;9.77;;;;;;;10.76;100.00;98115.94;5071490;28;20020;-88
2021/10/31 03:24:25;;;;;;;23.63;11.73;;;;;;;10.83;100.00;98118.31;5079753;28;20350;-88
2021/10/31 03:26:50;;;;;;;21.88;11.98;;;;;;;10.88;100.00;98126.09;5068228;28;20024;-88
2021/10/31 03:29:16;;;;;;;17.40;9.38;;;;;;;10.97;100.00;98119.72;5071783;28;20024;-88
2021/10/31 03:31:42;;;;;;;15.32;7.97;;;;;;;11.03;100.00;98130.91;5068374;28;20201;-89
2021/10/31 03:34:07;;;;;;;13.50;7.45;;;;;;;11.07;100.00;98132.53;5066099;28;20021;-89
2021/10/31 03:36:33;;;;;;;13.30;8.38;;;;;;;11.15;100.00;98134.97;5066034;28;20019;-89
2021/10/31 03:38:58;;;;;;;13.65;7.45;;;;;;;11.18;100.00;98135.75;5083834;28;20040;-89
2021/10/31 03:41:24;;;;;;;10.90;6.93;;;;;;;11.22;100.00;98142.66;5064177;28;20103;-89
2021/10/31 03:43:49;;;;;;;14.05;8.05;;;;;;;11.25;100.00;98137.28;5079183;28;20023;-89
2021/10/31 03:46:15;;;;;;;11.68;7.07;;;;;;;11.32;100.00;98138.81;5069146;28;20062;-89
2021/10/31 03:48:40;;;;;;;21.20;8.55;;;;;;;11.25;100.00;98133.78;5096263;28;20020;-89
2021/10/31 03:51:06;;;;;;;16.33;8.38;;;;;;;11.24;100.00;98137.31;5068077;28;20092;-89
2021/10/31 03:53:31;;;;;;;16.02;8.45;;;;;;;11.25;100.00;98137.28;5076904;28;20095;-88
2021/10/31 03:55:57;;;;;;;20.98;11.05;;;;;;;11.14;100.00;98128.84;5075280;28;20020;-88
2021/10/31 03:58:22;;;;;;;15.05;8.90;;;;;;;11.13;100.00;98121.84;5081429;28;20211;-88
2021/10/31 04:00:47;;;;;;;18.23;10.75;;;;;;;11.13;100.00;98132.38;5080203;28;20036;-88
2021/10/31 04:03:13;;;;;;;15.52;10.02;;;;;;;11.19;100.00;98126.94;5065735;28;20343;-89
2021/10/31 04:05:39;;;;;;;24.30;11.57;;;;;;;11.25;100.00;98120.59;5065547;28;20370;-89
2021/10/31 04:08:05;;;;;;;20.35;10.60;;;;;;;11.02;100.00;98120.44;5065736;28;20081;-88
2021/10/31 04:10:31;;;;;;;18.38;10.15;;;;;;;11.05;100.00;98123.84;5065578;28;20256;-88
2021/10/31 04:12:56;;;;;;;22.40;12.10;;;;;;;11.08;100.00;98129.03;5065504;28;20062;-88
2021/10/31 04:15:22;;;;;;;18.08;10.60;;;;;;;11.02;100.00;98129.22;5065525;28;20017;-89
2021/10/31 04:17:48;;;;;;;22.50;11.48;;;;;;;10.93;100.00;98121.56;5065634;28;20024;-89
2021/10/31 04:20:13;;;;;;;18.88;11.05;;;;;;;10.90;100.00;98125.16;5068193;28;20020;-88
2021/10/31 04:22:39;;;;;;;19.73;10.98;;;;;;;10.95;100.00;98127.66;5069386;28;20021;-88
2021/10/31 04:25:05;;;;;;;16.92;9.93;;;;;;;11.02;100.00;98131.84;5069345;28;20320;-89
2021/10/31 04:27:31;;;;;;;23.33;12.50;;;;;;;10.94;100.00;98120.66;5070416;28;20058;-89
2021/10/31 04:29:56;;;;;;;23.88;11.82;;;;;;;10.86;100.00;98122.66;5082848;28;20024;-89
2021/10/31 04:32:23;;;;;;;27.27;13.70;;;;;;;10.82;100.00;98121.88;5072813;28;20016;-89
2021/10/31 04:34:48;;;;;;;26.08;13.43;;;;;;;10.81;100.00;98124.53;5082254;28;20020;-88
2021/10/31 04:37:14;;;;;;;27.83;15.13;;;;;;;10.86;100.00;98125.28;5078685;28;20353;-88
2021/10/31 04:39:45;;;;;;;21.50;12.25;;;;;;;10.93;100.00;98134.72;5093855;28;20023;-88
2021/10/31 04:42:11;;;;;;;22.67;13.27;;;;;;;10.97;100.00;98136.38;5071563;28;20020;-88
2021/10/31 04:44:38;;;;;;;21.25;13.38;;;;;;;10.92;100.00;98133.00;5099632;28;20023;-88
2021/10/31 04:47:04;;;;;;;23.35;13.40;;;;;;;10.92;100.00;98127.75;5071167;28;20032;-88
2021/10/31 04:49:30;;;;;;;24.05;13.45;;;;;;;10.92;100.00;98138.28;5085231;28;20130;-88
2021/10/31 04:51:55;;;;;;;23.80;13.68;;;;;;;10.96;100.00;98129.38;5079835;28;20031;-88
2021/10/31 04:54:22;;;;;;;25.27;15.52;;;;;;;10.96;100.00;98132.00;5078872;28;20036;-88
2021/10/31 04:56:47;;;;;;;25.55;14.85;;;;;;;10.98;100.00;98127.53;5100732;28;20016;-89
2021/10/31 04:59:14;;;;;;;25.02;15.80;;;;;;;11.00;100.00;98131.00;5078264;28;20091;-88
2021/10/31 05:01:39;;;;;;;22.65;13.88;;;;;;;11.02;100.00;98124.78;5075897;28;20085;-88
2021/10/31 05:04:05;;;;;;;28.73;14.48;;;;;;;11.01;100.00;98116.91;5077498;28;20019;-88
2021/10/31 05:06:30;;;;;;;22.42;13.50;;;;;;;11.06;100.00;98125.56;5083548;28;20047;-88
2021/10/31 05:08:57;;;;;;;20.50;13.38;;;;;;;11.08;100.00;98123.75;5081631;28;20054;-89
2021/10/31 05:11:23;;;;;;;24.80;15.27;;;;;;;11.00;100.00;98120.47;5069694;28;20055;-89
2021/10/31 05:13:48;;;;;;;33.08;15.98;;;;;;;11.00;100.00;98109.94;5086323;28;20024;-89
2021/10/31 05:16:14;;;;;;;29.08;16.23;;;;;;;10.98;100.00;98111.75;5086270;28;20385;-88
2021/10/31 05:18:40;;;;;;;25.60;15.32;;;;;;;10.99;100.00;98113.50;5086170;28;20043;-88
2021/10/31 05:21:06;;;;;;;24.95;15.45;;;;;;;11.00;100.00;98115.22;5081015;28;20065;-88
2021/10/31 05:23:31;;;;;;;26.23;14.48;;;;;;;11.04;100.00;98116.84;5080439;28;20016;-88
2021/10/31 05:25:57;;;;;;;19.63;12.50;;;;;;;11.09;100.00;98114.06;5079127;28;20222;-88
2021/10/31 05:28:24;;;;;;;25.17;14.35;;;;;;;11.13;100.00;98113.94;5085025;28;20025;-88
2021/10/31 05:30:50;;;;;;;23.95;12.25;;;;;;;11.04;100.00;98106.31;5074123;28;20020;-89
2021/10/31 05:33:15;;;;;;;19.23;12.25;;;;;;;11.06;100.00;98101.88;5083411;28;20055;-88
2021/10/31 05:35:41;;;;;;;24.02;12.50;;;;;;;11.02;100.00;98108.13;5073868;28;20020;-88
2021/10/31 05:38:06;;;;;;;21.17;12.15;;;;;;;11.00;100.00;98099.41;5077790;28;20021;-89
2021/10/31 05:40:32;;;;;;;21.00;12.23;;;;;;;11.05;100.00;98097.53;5079914;28;20369;-89
2021/10/31 05:42:58;;;;;;;19.20;12.43;;;;;;;11.09;100.00;98104.41;5069486;28;20311;-89
2021/10/31 05:45:24;;;;;;;17.58;10.27;;;;;;;11.13;100.00;98106.03;5083533;28;20034;-89
2021/10/31 05:47:51;;;;;;;18.27;11.55;;;;;;;11.09;100.00;98096.50;5087343;28;20027;-89
2021/10/31 05:50:18;;;;;;;18.90;9.52;;;;;;;11.17;100.00;98096.28;5087848;28;20031;-89
2021/10/31 05:52:44;;;;;;;24.58;13.70;;;;;;;11.12;100.00;98088.53;5087722;28;20129;-89
2021/10/31 05:55:12;;;;;;;23.23;11.52;;;;;;;11.11;100.00;98091.19;5087702;28;20028;-89
2021/10/31 05:57:37;;;;;;;25.10;12.13;;;;;;;11.05;100.00;98081.72;5096019;28;20069;-89
2021/10/31 06:00:06;;;;;;;23.23;13.10;;;;;;;11.04;100.00;98085.22;5063449;28;20020;-89
2021/10/31 06:02:32;;;;;;;19.75;12.95;;;;;;;11.10;100.00;98079.78;5076123;28;20331;-89
2021/10/31 06:04:59;;;;;;;16.00;9.27;;;;;;;11.19;100.00;98089.19;5071402;28;21129;-89
2021/10/31 06:07:25;;;;;;;20.17;11.32;;;;;;;11.15;100.00;98083.16;5078196;28;20032;-89
2021/10/31 06:09:51;;;;;;;27.50;13.85;;;;;;;11.11;100.00;98080.66;5078764;28;20012;-89
2021/10/31 06:12:17;;;;;;;29.88;15.90;;;;;;;11.10;100.00;98074.53;5074480;28;20023;-89
2021/10/31 06:14:42;;;;;;;24.30;14.23;;;;;;;11.08;100.00;98075.47;5100627;28;20040;-89
2021/10/31 06:17:08;;;;;;;24.83;14.75;;;;;;;11.15;100.00;98077.91;5087338;28;20012;-89
2021/10/31 06:19:35;;;;;;;30.13;15.25;;;;;;;11.14;100.00;98073.53;5105329;28;20020;-89
2021/10/31 06:22:01;;;;;;;23.73;13.60;;;;;;;11.21;100.00;98082.09;5087057;28;20019;-89
2021/10/31 06:24:26;;;;;;;29.38;14.75;;;;;;;11.22;100.00;98073.28;5087082;28;20047;-89
2021/10/31 06:26:52;;;;;;;21.30;13.77;;;;;;;11.19;100.00;98068.97;5087090;28;20065;-89
2021/10/31 06:29:17;;;;;;;26.45;15.48;;;;;;;11.19;100.00;98068.97;5105097;28;20050;-89
2021/10/31 06:31:43;;;;;;;24.83;15.05;;;;;;;11.24;100.00;98056.53;5087057;28;20361;-89
2021/10/31 06:34:08;;;;;;;24.25;14.05;;;;;;;11.24;100.00;98051.28;5086899;28;20020;-89
2021/10/31 06:36:34;;;;;;;23.38;13.35;;;;;;;11.27;100.00;98051.19;5086915;28;20092;-89
2021/10/31 06:38:59;;;;;;;25.20;12.88;;;;;;;11.30;100.00;98051.09;5086891;28;20020;-89
2021/10/31 06:41:25;;;;;;;22.42;11.80;;;;;;;11.36;100.00;98045.59;5080985;28;20016;-89
2021/10/31 06:43:51;;;;;;;21.35;11.38;;;;;;;11.40;100.00;98044.63;5077715;28;20023;-89
2021/10/31 06:46:17;;;;;;;21.08;11.90;;;;;;;11.44;100.00;98029.53;5080049;28;20088;-89
2021/10/31 06:48:42;;;;;;;23.17;12.60;;;;;;;11.44;100.00;98014.59;5061292;28;20035;-89
2021/10/31 06:51:08;;;;;;;20.95;12.13;;;;;;;11.39;100.00;98024.41;5074817;28;20015;-89
2021/10/31 06:53:33;;;;;;;19.98;11.20;;;;;;;11.50;100.00;98026.72;5075980;28;20016;-89
2021/10/31 06:56:00;;;;;;;22.50;13.20;;;;;;;11.50;100.00;98022.31;5081604;28;20189;-89
2021/10/31 06:58:25;;;;;;;24.73;14.70;;;;;;;11.45;100.00;98020.75;5090084;28;20023;-89
2021/10/31 07:00:50;;;;;;;25.25;14.82;;;;;;;11.47;100.00;98017.16;5072678;28;20158;-89
2021/10/31 07:03:16;;;;;;;26.80;15.80;;;;;;;11.57;100.00;98015.06;5074538;28;20087;-88
2021/10/31 07:05:41;;;;;;;23.90;14.25;;;;;;;11.62;100.00;98011.41;5082237;28;20215;-88
2021/10/31 07:08:07;;;;;;;27.77;14.15;;;;;;;11.79;100.00;98030.16;5072948;28;20028;-89
2021/10/31 07:10:32;;;;;;;24.52;14.00;;;;;;;11.97;100.00;98019.00;5081815;28;20023;-89
2021/10/31 07:12:58;;;;;;;24.02;13.20;;;;;;;12.15;100.00;98028.88;5078951;28;20016;-89
2021/10/31 07:15:23;;;;;;;22.55;13.88;;;;;;;12.27;100.00;98027.56;5092268;28;20043;-89
2021/10/31 07:17:49;;;;;;;20.77;12.20;;;;;;;12.37;100.00;98024.56;5097935;28;20020;-89
2021/10/31 07:20:15;;;;;;;17.42;9.52;;;;;;;12.51;100.00;98019.66;5086394;28;20107;-89
2021/10/31 07:22:41;;;;;;;17.67;11.18;;;;;;;12.61;100.00;98018.41;5070941;28;20055;-89
2021/10/31 07:25:08;;;;;;;19.02;11.52;;;;;;;12.69;100.00;98021.59;5095535;28;20070;-89
2021/10/31 07:27:34;;;;;;;19.98;11.63;;;;;;;12.78;100.00;98021.25;5076753;28;20032;-89
2021/10/31 07:29:59;;;;;;;13.48;7.65;;;;;;;12.98;100.00;98013.44;5080139;28;20091;-89
2021/10/31 07:32:25;;;;;;;14.02;8.13;;;;;;;13.14;100.00;98015.50;5092438;28;20031;-89
2021/10/31 07:34:51;;;;;;;14.68;7.97;;;;;;;13.21;100.00;98014.34;5081649;28;20081;-89
2021/10/31 07:37:16;;;;;;;14.82;7.00;;;;;;;13.33;100.00;98013.88;5089450;28;20047;-89
2021/10/31 07:39:43;;;;;;;15.63;7.95;;;;;;;13.53;100.00;98000.69;5070689;28;20100;-89
2021/10/31 07:42:09;;;;;;;12.65;6.90;;;;;;;13.74;100.00;97990.09;5100836;28;20016;-89
2021/10/31 07:44:34;;;;;;;8.15;5.28;;;;;;;13.94;100.00;97991.88;5071945;28;20099;-89
2021/10/31 07:47:00;;;;;;;9.77;5.03;;;;;;;14.17;100.00;97983.81;5082766;28;20087;-90
2021/10/31 07:49:25;;;;;;;11.90;4.97;;;;;;;14.42;99.78;97992.41;5077598;28;20331;-89
2021/10/31 07:51:51;;;;;;;11.13;4.53;;;;;;;14.69;99.17;97999.13;5072121;28;20024;-89
2021/10/31 07:54:23;;;;;;;9.18;4.00;;;;;;;14.79;97.68;98001.31;5068459;28;20205;-89
2021/10/31 07:56:49;;;;;;;8.17;4.50;;;;;;;15.03;96.99;97996.66;5095946;28;20074;-89
2021/10/31 07:59:15;;;;;;;8.27;3.70;;;;;;;15.39;96.02;97991.41;5069764;28;20047;-89
2021/10/31 08:01:40;;;;;;;6.50;3.33;;;;;;;15.44;94.19;97989.41;5069754;28;20021;-89
2021/10/31 08:04:06;;;;;;;14.43;4.35;;;;;;;15.65;92.75;97988.31;5069666;28;20028;-89
2021/10/31 08:06:31;;;;;;;6.22;3.65;;;;;;;15.27;93.47;97998.13;5069472;28;20103;-89
2021/10/31 08:08:57;;;;;;;6.03;3.75;;;;;;;15.15;93.78;97975.72;5095461;28;20038;-89
2021/10/31 08:11:22;;;;;;;5.72;3.40;;;;;;;15.45;92.49;97965.44;5077228;28;20043;-89
2021/10/31 08:13:48;;;;;;;9.43;3.65;;;;;;;15.31;91.39;97973.16;5085318;28;20215;-89
2021/10/31 08:16:13;;;;;;;7.38;3.60;;;;;;;16.25;90.47;97986.06;5072905;28;20083;-89
2021/10/31 08:18:39;;;;;;;8.48;4.07;;;;;;;16.94;86.67;97981.47;5092792;28;20088;-89
2021/10/31 08:21:05;;;;;;;6.07;4.07;;;;;;;17.49;83.13;97973.97;5098075;28;20047;-89
2021/10/31 08:23:31;;;;;;;5.22;3.13;;;;;;;17.27;83.15;97976.09;5076366;28;20055;-89
2021/10/31 08:25:58;;;;;;;6.07;3.78;;;;;;;16.97;83.32;97966.22;5078359;28;20040;-89
2021/10/31 08:28:24;;;;;;;6.97;4.40;;;;;;;17.25;83.86;97966.38;5077130;28;20012;-89
2021/10/31 08:30:57;;;;;;;6.82;3.70;;;;;;;17.65;81.43;97970.31;5071522;28;20320;-89
2021/10/31 08:33:25;;;;;;;11.77;3.83;;;;;;;17.39;81.98;97960.28;5082651;28;20038;-89
2021/10/31 08:35:50;;;;;;;7.25;3.80;;;;;;;17.97;80.23;97971.09;5065797;28;20054;-90
2021/10/31 08:38:17;;;;;;;7.28;3.47;;;;;;;18.78;77.75;97974.97;5086947;28;20025;-89
2021/10/31 08:40:44;;;;;;;6.68;3.53;;;;;;;18.35;77.74;97967.00;5069050;28;20160;-89
2021/10/31 08:43:10;;;;;;;7.35;3.30;;;;;;;18.21;80.50;97972.28;5069077;28;20385;-89
2021/10/31 08:45:41;;;;;;;7.25;3.67;;;;;;;18.79;78.68;97983.78;5078319;28;20051;-90
2021/10/31 08:48:07;;;;;;;14.03;3.73;;;;;;;19.00;76.06;97982.44;5072483;28;20023;-90
2021/10/31 08:50:33;;;;;;;7.70;4.13;;;;;;;18.12;78.10;97960.38;5082839;28;20016;-89
2021/10/31 08:52:58;;;;;;;8.90;4.40;;;;;;;18.32;77.83;97973.34;5075099;28;20015;-89
2021/10/31 08:55:24;;;;;;;6.57;4.43;;;;;;;18.16;78.25;97955.75;5078179;28;20021;-89
2021/10/31 08:57:50;;;;;;;6.82;4.28;;;;;;;18.57;76.42;97951.44;5081668;28;20327;-89
2021/10/31 09:00:15;;;;;;;7.07;4.03;;;;;;;18.84;75.85;97952.38;5071476;28;20028;-90
2021/10/31 09:02:41;;;;;;;11.65;4.70;;;;;;;19.31;74.09;97950.22;5068558;28;20024;-90
2021/10/31 09:05:08;;;;;;;12.80;4.32;;;;;;;18.84;75.59;97944.38;5066666;28;20402;-90
2021/10/31 09:07:34;;;;;;;14.90;4.47;;;;;;;19.53;74.36;97944.34;5086265;28;20024;-90
2021/10/31 09:10:00;;;;;;;9.48;4.25;;;;;;;19.51;72.89;97951.56;5068924;28;20016;-90
2021/10/31 09:12:26;;;;;;;7.15;4.53;;;;;;;18.59;74.62;97929.06;5077898;28;20031;-90
2021/10/31 09:14:52;;;;;;;11.70;5.10;;;;;;;18.04;78.19;97940.50;5068536;28;20253;-90
2021/10/31 09:17:17;;;;;;;8.95;4.80;;;;;;;17.39;81.02;97916.84;5069509;28;20017;-89
2021/10/31 09:19:43;;;;;;;10.40;5.60;;;;;;;17.40;80.72;97915.94;5071407;28;20021;-89
2021/10/31 09:22:09;;;;;;;8.15;5.07;;;;;;;17.20;81.37;97978.22;5067407;28;20078;-88
2021/10/31 09:24:35;;;;;;;17.63;6.03;;;;;;;16.66;83.01;97968.84;5068289;28;20020;-89
2021/10/31 09:27:00;;;;;;;10.48;5.38;;;;;;;16.68;82.97;97972.25;5068253;28;20220;-89
2021/10/31 09:29:28;;;;;;;10.68;5.47;;;;;;;16.88;83.48;97972.03;5090414;28;20193;-89
2021/10/31 09:31:54;;;;;;;7.97;5.40;;;;;;;16.56;84.43;97972.94;5102926;28;20047;-88
2021/10/31 09:34:20;;;;;;;9.25;5.88;;;;;;;16.71;84.44;97969.44;5075637;28;20012;-88
2021/10/31 09:36:46;;;;;;;10.35;5.00;;;;;;;16.90;84.19;97970.13;5083742;28;20026;-89
2021/10/31 09:39:12;;;;;;;9.15;4.85;;;;;;;17.20;82.79;97963.13;5070268;28;20307;-89
2021/10/31 09:41:38;;;;;;;10.48;4.97;;;;;;;17.04;83.01;97966.72;5080827;28;20036;-89
2021/10/31 09:44:29;;;;;;;8.63;4.65;;;;;;;17.30;82.68;97957.31;5066761;28;20104;-89
2021/10/31 09:46:55;;;;;;;8.90;5.07;;;;;;;16.96;83.92;97948.53;5054689;28;20012;-89
2021/10/31 09:49:21;;;;;;;7.80;4.68;;;;;;;16.91;85.06;97944.44;5066839;28;20028;-89
2021/10/31 09:51:50;;;;;;;11.98;4.85;;;;;;;17.06;84.46;97955.06;5081319;28;20016;-89
2021/10/31 09:54:17;;;;;;;10.50;4.88;;;;;;;17.15;84.50;97943.91;5087815;28;20020;-89
2021/10/31 09:56:43;;;;;;;9.98;4.20;;;;;;;17.14;83.78;97939.53;5083436;28;20042;-89
2021/10/31 09:59:11;;;;;;;8.05;3.95;;;;;;;17.20;84.46;97936.53;5076226;28;20384;-89
2021/10/31 10:04:29;;;;;;;5.90;3.78;;;;;;;17.05;84.90;97932.09;5100379;28;20008;-89
2021/10/31 10:06:56;;;;;;;10.55;4.25;;;;;;;17.11;85.17;97917.56;5075615;28;20223;-89
2021/10/31 10:09:22;;;;;;;10.27;3.97;;;;;;;17.07;84.95;97918.69;5078176;28;20011;-89
2021/10/31 10:11:48;;;;;;;7.00;3.78;;;;;;;16.92;85.23;97917.75;5081059;28;20403;-89
2021/10/31 10:14:24;;;;;;;11.65;4.45;;;;;;;16.89;85.99;97907.31;5087447;28;20188;-89
2021/10/31 10:16:54;;;;;;;6.82;3.97;;;;;;;17.05;85.46;97900.19;5060526;28;20021;-89
2021/10/31 10:19:26;;;;;;;7.65;4.07;;;;;;;17.06;85.40;97896.56;5072322;28;20212;-89
2021/10/31 10:21:54;;;;;;;8.47;3.47;;;;;;;17.25;83.72;97901.72;5100278;28;20381;-89
2021/10/31 10:24:22;;;;;;;5.78;3.30;;;;;;;17.14;84.44;97889.03;5087310;28;20333;-89
2021/10/31 10:26:48;;;;;;;6.57;3.40;;;;;;;17.05;84.92;97886.88;5095869;28;20083;-89
2021/10/31 10:29:18;;;;;;;8.52;3.35;;;;;;;17.24;84.00;97879.56;5093556;28;20051;-89
2021/10/31 10:31:51;;;;;;;6.65;3.75;;;;;;;17.13;84.79;97876.69;5069807;28;20058;-88
2021/10/31 10:34:30;;;;;;;6.65;3.38;;;;;;;17.16;84.14;97868.53;5067018;28;20028;-89
2021/10/31 10:36:57;;;;;;;6.88;3.50;;;;;;;17.20;84.40;97877.16;5066685;28;20035;-89
2021/10/31 10:39:22;;;;;;;7.00;2.90;;;;;;;17.12;84.76;97874.94;5066855;28;20020;-89
2021/10/31 10:41:53;;;;;;;8.23;3.70;;;;;;;17.18;84.61;97879.91;5066824;28;20339;-89
2021/10/31 10:44:20;;;;;;;5.55;2.90;;;;;;;17.27;83.53;97866.09;5066655;28;20024;-89
2021/10/31 10:46:48;;;;;;;4.47;2.65;;;;;;;17.45;83.10;97873.97;5066694;28;20088;-89
2021/10/31 10:49:17;;;;;;;7.57;3.63;;;;;;;17.60;83.48;97865.97;5066712;28;20027;-88
2021/10/31 10:51:45;;;;;;;4.43;2.95;;;;;;;17.89;82.69;97874.84;5066637;28;20021;-88
2021/10/31 10:54:15;;;;;;;5.28;2.70;;;;;;;18.11;81.80;97869.94;5066607;28;20219;-88
2021/10/31 10:57:04;;;;;;;6.00;3.20;;;;;;;18.19;80.96;97859.69;5069712;28;20216;-88
2021/10/31 10:59:31;;;;;;;6.82;3.28;;;;;;;18.12;81.21;97847.66;5075440;28;20040;-88
2021/10/31 11:02:15;;;;;;;6.25;2.85;;;;;;;18.22;82.56;97838.19;5069023;28;20023;-88
2021/10/31 11:04:42;;;;;;;7.57;2.55;;;;;;;18.10;81.62;97838.94;5069761;28;20016;-88
2021/10/31 11:07:09;;;;;;;6.57;2.33;;;;;;;18.06;80.89;97832.06;5080276;28;20059;-89
2021/10/31 11:09:46;;;;;;;4.78;2.30;;;;;;;18.15;81.71;97826.16;5070407;28;20087;-89
2021/10/31 11:12:31;;;;;;;4.72;2.60;;;;;;;18.11;81.18;97814.00;5064734;28;20028;-89
2021/10/31 11:15:05;;;;;;;4.43;2.08;;;;;;;18.30;80.57;97825.22;5081896;28;20054;-89
2021/10/31 11:17:32;;;;;;;6.45;2.25;;;;;;;18.30;80.75;97817.22;5068201;28;20024;-89
2021/10/31 11:19:58;;;;;;;3.08;1.98;;;;;;;18.59;81.25;97819.78;5071803;28;20149;-89
2021/10/31 11:22:27;;;;;;;2.65;1.88;;;;;;;18.67;80.54;97813.97;5071688;28;20023;-89
2021/10/31 11:24:53;;;;;;;4.10;2.40;;;;;;;18.66;80.51;97796.25;5083095;28;20028;-89
2021/10/31 11:27:22;;;;;;;3.40;2.22;;;;;;;18.64;81.24;97880.81;5076641;28;20280;-89